Time;durP1;ratioP1;P1;durP2;ratioP2;P2;SDS_P1;SDS_P2;PMS_P1;PMS_P2;Temp;Humidity;BMP_temperature;BMP_pressure;BME280_temperature;BME280_humidity;BME280_pressure;Samples;Min_cycle;Max_cycle;Signal;HPM_P1;HPM_P2
2023/10/22 00:02:21;;;;;;;7.03;4.47;;;;;;;;;;2612415;54;20415;-75
2023/10/22 00:04:47;;;;;;;4.70;4.30;;;;;;;;;;2612290;54;20411;-73
2023/10/22 00:07:16;;;;;;;5.23;4.50;;;;;;;;;;2611733;54;20958;-73
2023/10/22 00:09:42;;;;;;;5.57;4.80;;;;;;;;;;2611773;54;20418;-72
2023/10/22 00:12:09;;;;;;;5.23;4.93;;;;;;;;;;2611618;54;20430;-72
2023/10/22 00:14:37;;;;;;;9.63;4.60;;;;;;;;;;2611826;47;21265;-72
2023/10/22 00:17:03;;;;;;;4.93;4.43;;;;;;;;;;2612508;39;20846;-74
2023/10/22 00:19:29;;;;;;;5.40;4.90;;;;;;;;;;2611715;54;20415;-74
2023/10/22 00:21:55;;;;;;;4.93;4.63;;;;;;;;;;2612557;54;20543;-73
2023/10/22 00:24:21;;;;;;;5.00;4.70;;;;;;;;;;2612278;46;20473;-71
2023/10/22 00:26:47;;;;;;;4.93;4.43;;;;;;;;;;2611839;47;20424;-72
2023/10/22 00:29:14;;;;;;;4.77;4.40;;;;;;;;;;2612130;46;20447;-72
2023/10/22 00:31:40;;;;;;;6.20;5.23;;;;;;;;;;2611744;54;20466;-74
2023/10/22 00:34:06;;;;;;;4.80;4.50;;;;;;;;;;2612134;39;20867;-73
2023/10/22 00:36:32;;;;;;;4.60;4.20;;;;;;;;;;2611379;47;20432;-73
2023/10/22 00:38:58;;;;;;;5.23;4.83;;;;;;;;;;2611779;54;20494;-72
2023/10/22 00:41:24;;;;;;;5.00;4.60;;;;;;;;;;2612654;39;20827;-74
2023/10/22 00:43:50;;;;;;;5.03;4.63;;;;;;;;;;2612008;54;20419;-73
2023/10/22 00:46:25;;;;;;;5.07;4.57;;;;;;;;;;2611082;51;20992;-73
2023/10/22 00:48:52;;;;;;;5.90;4.77;;;;;;;;;;2610628;47;20480;-76
2023/10/22 00:51:19;;;;;;;4.40;4.10;;;;;;;;;;2612286;39;20788;-72
2023/10/22 00:53:46;;;;;;;5.00;4.47;;;;;;;;;;2612022;54;20388;-74
2023/10/22 00:56:12;;;;;;;5.43;4.90;;;;;;;;;;2612528;54;20435;-71
2023/10/22 00:58:39;;;;;;;9.87;5.53;;;;;;;;;;2612286;54;20423;-72
2023/10/22 01:01:08;;;;;;;4.60;4.30;;;;;;;;;;2613029;54;20434;-72
2023/10/22 01:03:38;;;;;;;5.40;4.90;;;;;;;;;;2612845;54;20403;-72
2023/10/22 01:06:04;;;;;;;4.67;4.27;;;;;;;;;;2613416;54;20970;-74
2023/10/22 01:08:32;;;;;;;5.03;4.47;;;;;;;;;;2613251;54;20478;-72
2023/10/22 01:11:08;;;;;;;4.60;4.30;;;;;;;;;;2612637;54;20506;-72
2023/10/22 01:13:35;;;;;;;4.30;4.00;;;;;;;;;;2612292;54;20515;-74
2023/10/22 01:16:01;;;;;;;6.10;4.40;;;;;;;;;;2613292;54;20451;-72
2023/10/22 01:18:27;;;;;;;4.80;4.40;;;;;;;;;;2612255;54;20419;-72
2023/10/22 01:20:54;;;;;;;6.10;4.30;;;;;;;;;;2612125;54;20404;-72
2023/10/22 01:23:20;;;;;;;5.40;4.63;;;;;;;;;;2610856;54;20443;-73
2023/10/22 01:25:46;;;;;;;6.30;4.67;;;;;;;;;;2611242;39;20842;-73
2023/10/22 01:28:12;;;;;;;7.70;4.13;;;;;;;;;;2611504;54;20396;-74
2023/10/22 01:30:38;;;;;;;4.83;4.30;;;;;;;;;;2611923;47;20460;-74
2023/10/22 01:33:04;;;;;;;5.47;4.50;;;;;;;;;;2612586;39;20767;-73
2023/10/22 01:35:31;;;;;;;3.97;3.77;;;;;;;;;;2610799;54;20507;-74
2023/10/22 01:37:57;;;;;;;3.90;3.70;;;;;;;;;;2610886;54;20487;-73
2023/10/22 01:40:23;;;;;;;4.60;4.20;;;;;;;;;;2610361;54;20399;-74
2023/10/22 01:42:50;;;;;;;4.40;4.00;;;;;;;;;;2610454;54;21063;-74
2023/10/22 01:45:16;;;;;;;8.10;4.10;;;;;;;;;;2611512;46;20449;-74
2023/10/22 01:47:42;;;;;;;3.90;3.60;;;;;;;;;;2612937;54;20372;-73
2023/10/22 01:50:08;;;;;;;4.00;3.80;;;;;;;;;;2612149;39;20812;-73
2023/10/22 01:52:34;;;;;;;7.73;4.53;;;;;;;;;;2611759;47;21398;-73
2023/10/22 01:55:01;;;;;;;3.60;3.40;;;;;;;;;;2610641;54;20403;-75
2023/10/22 01:57:27;;;;;;;6.80;4.80;;;;;;;;;;2611914;54;21094;-74
2023/10/22 01:59:53;;;;;;;4.43;4.13;;;;;;;;;;2613741;39;20761;-74
2023/10/22 02:02:19;;;;;;;5.33;3.93;;;;;;;;;;2611608;47;20503;-76
2023/10/22 02:04:45;;;;;;;4.80;4.40;;;;;;;;;;2612583;54;20459;-76
2023/10/22 02:07:14;;;;;;;7.20;4.43;;;;;;;;;;2610639;54;20423;-74
2023/10/22 02:09:40;;;;;;;4.93;4.20;;;;;;;;;;2610760;54;20395;-76
2023/10/22 02:12:08;;;;;;;4.30;4.00;;;;;;;;;;2610116;46;20430;-75
2023/10/22 02:14:34;;;;;;;5.40;4.07;;;;;;;;;;2610476;54;20415;-75
2023/10/22 02:17:00;;;;;;;4.00;3.70;;;;;;;;;;2611259;54;20443;-75
2023/10/22 02:19:26;;;;;;;4.10;3.90;;;;;;;;;;2612496;54;20483;-75
2023/10/22 02:21:53;;;;;;;4.20;3.80;;;;;;;;;;2612357;54;20411;-75
2023/10/22 02:24:20;;;;;;;4.40;4.00;;;;;;;;;;2612699;54;20411;-76
2023/10/22 02:26:47;;;;;;;4.10;3.70;;;;;;;;;;2612695;54;20517;-76
2023/10/22 02:29:15;;;;;;;4.30;4.00;;;;;;;;;;2611375;47;20498;-74
2023/10/22 02:31:48;;;;;;;3.87;3.57;;;;;;;;;;2615961;54;20423;-75
2023/10/22 02:34:14;;;;;;;4.27;3.97;;;;;;;;;;2615346;46;20415;-75
2023/10/22 02:36:40;;;;;;;4.67;4.00;;;;;;;;;;2615125;54;20463;-73
2023/10/22 02:39:08;;;;;;;3.97;3.63;;;;;;;;;;2616042;54;21404;-75
2023/10/22 02:41:44;;;;;;;5.63;4.60;;;;;;;;;;2615719;54;20419;-74
2023/10/22 02:44:16;;;;;;;3.80;3.60;;;;;;;;;;2615127;47;20499;-75
2023/10/22 02:46:44;;;;;;;4.07;3.67;;;;;;;;;;2616295;54;20450;-74
2023/10/22 02:49:10;;;;;;;3.80;3.60;;;;;;;;;;2616108;54;20431;-73
2023/10/22 02:51:37;;;;;;;4.47;3.47;;;;;;;;;;2616403;54;20404;-74
2023/10/22 02:54:05;;;;;;;3.87;3.33;;;;;;;;;;2616142;54;20423;-74
2023/10/22 02:56:34;;;;;;;3.70;3.40;;;;;;;;;;2616172;54;20419;-74
2023/10/22 02:59:02;;;;;;;3.50;3.17;;;;;;;;;;2616933;54;20878;-74
2023/10/22 03:01:30;;;;;;;5.30;3.47;;;;;;;;;;2616167;54;22013;-75
2023/10/22 03:03:57;;;;;;;5.00;3.47;;;;;;;;;;2615883;46;20659;-74
2023/10/22 03:06:26;;;;;;;4.57;3.67;;;;;;;;;;2616505;54;20527;-74
2023/10/22 03:08:52;;;;;;;3.30;3.00;;;;;;;;;;2616286;54;20939;-74
2023/10/22 03:11:20;;;;;;;3.80;3.13;;;;;;;;;;2615931;54;20453;-74
2023/10/22 03:13:49;;;;;;;3.50;2.90;;;;;;;;;;2616023;54;20408;-73
2023/10/22 03:16:24;;;;;;;3.17;2.97;;;;;;;;;;2616236;54;20431;-74
2023/10/22 03:18:57;;;;;;;3.37;3.17;;;;;;;;;;2616036;54;20427;-73
2023/10/22 03:21:28;;;;;;;3.97;2.87;;;;;;;;;;2614684;39;20723;-74
2023/10/22 03:23:55;;;;;;;3.50;3.20;;;;;;;;;;2616080;54;20402;-74
2023/10/22 03:26:21;;;;;;;3.10;2.80;;;;;;;;;;2616394;54;20431;-74
2023/10/22 03:28:50;;;;;;;3.10;2.80;;;;;;;;;;2616410;54;20876;-74
2023/10/22 03:31:16;;;;;;;3.30;3.10;;;;;;;;;;2615760;54;20421;-74
2023/10/22 03:33:43;;;;;;;3.03;2.73;;;;;;;;;;2616085;46;20428;-73
2023/10/22 03:36:11;;;;;;;5.10;2.60;;;;;;;;;;2615855;54;20408;-74
2023/10/22 03:38:38;;;;;;;2.73;2.50;;;;;;;;;;2615911;54;20407;-74
2023/10/22 03:41:05;;;;;;;3.17;2.70;;;;;;;;;;2613534;54;20454;-73
2023/10/22 03:43:34;;;;;;;2.60;2.40;;;;;;;;;;2611704;47;20463;-74
2023/10/22 03:46:03;;;;;;;3.33;3.03;;;;;;;;;;2612528;54;20415;-73
2023/10/22 03:48:30;;;;;;;2.60;2.13;;;;;;;;;;2612911;54;20430;-73
2023/10/22 03:50:58;;;;;;;4.20;2.50;;;;;;;;;;2612726;54;20410;-72
2023/10/22 03:53:25;;;;;;;3.60;2.50;;;;;;;;;;2611568;54;20402;-74
2023/10/22 03:55:52;;;;;;;5.60;2.20;;;;;;;;;;2612652;39;20892;-74
2023/10/22 03:58:18;;;;;;;3.00;2.40;;;;;;;;;;2613038;39;20810;-75
2023/10/22 04:00:44;;;;;;;4.10;2.20;;;;;;;;;;2612420;54;20483;-75
2023/10/22 04:03:10;;;;;;;3.97;2.60;;;;;;;;;;2611889;54;20436;-75
2023/10/22 04:05:36;;;;;;;4.53;2.60;;;;;;;;;;2612959;54;21378;-72
2023/10/22 04:08:03;;;;;;;2.83;2.37;;;;;;;;;;2612118;54;20446;-73
2023/10/22 04:10:30;;;;;;;3.57;2.33;;;;;;;;;;2611814;51;20423;-73
2023/10/22 04:12:56;;;;;;;2.47;2.27;;;;;;;;;;2611396;54;20815;-72
2023/10/22 04:15:22;;;;;;;2.03;1.87;;;;;;;;;;2612532;54;20980;-73
2023/10/22 04:17:48;;;;;;;3.93;2.30;;;;;;;;;;2611954;47;20408;-74
2023/10/22 04:20:14;;;;;;;2.40;2.07;;;;;;;;;;2612302;39;20791;-73
2023/10/22 04:22:44;;;;;;;3.20;2.20;;;;;;;;;;2612374;46;20451;-75
2023/10/22 04:25:11;;;;;;;3.43;2.10;;;;;;;;;;2611917;54;20416;-73
2023/10/22 04:27:37;;;;;;;3.93;3.10;;;;;;;;;;2612592;54;20458;-73
2023/10/22 04:30:05;;;;;;;2.30;2.07;;;;;;;;;;2612585;54;20412;-73
2023/10/22 04:32:34;;;;;;;4.33;2.00;;;;;;;;;;2611254;31;20920;-72
2023/10/22 04:35:01;;;;;;;1.93;1.73;;;;;;;;;;2612784;39;21027;-72
2023/10/22 04:37:27;;;;;;;5.80;2.10;;;;;;;;;;2610534;47;20463;-73
2023/10/22 04:39:55;;;;;;;3.03;2.33;;;;;;;;;;2612365;54;20435;-72
2023/10/22 04:42:22;;;;;;;2.30;2.03;;;;;;;;;;2612588;54;20408;-74
2023/10/22 04:44:48;;;;;;;2.50;2.30;;;;;;;;;;2612237;54;20539;-71
2023/10/22 04:47:14;;;;;;;4.50;2.20;;;;;;;;;;2611473;54;21038;-72
2023/10/22 04:49:40;;;;;;;2.33;2.00;;;;;;;;;;2612412;54;21253;-74
2023/10/22 04:52:09;;;;;;;2.77;2.57;;;;;;;;;;2610835;54;20431;-75
2023/10/22 04:54:35;;;;;;;2.27;2.03;;;;;;;;;;2612425;39;20825;-75
2023/10/22 04:57:02;;;;;;;3.80;2.20;;;;;;;;;;2612219;54;20392;-74
2023/10/22 04:59:28;;;;;;;2.10;1.90;;;;;;;;;;2612440;39;20871;-74
2023/10/22 05:01:54;;;;;;;4.10;2.30;;;;;;;;;;2611029;54;20407;-76
2023/10/22 05:04:21;;;;;;;2.00;1.90;;;;;;;;;;2611489;54;20559;-75
2023/10/22 05:06:49;;;;;;;2.87;2.67;;;;;;;;;;2611374;54;20503;-74
2023/10/22 05:09:15;;;;;;;2.13;1.93;;;;;;;;;;2612678;39;20857;-75
2023/10/22 05:11:41;;;;;;;2.77;2.30;;;;;;;;;;2611427;54;20411;-76
2023/10/22 05:14:07;;;;;;;2.17;1.90;;;;;;;;;;2611872;54;20475;-76
2023/10/22 05:16:33;;;;;;;2.40;2.20;;;;;;;;;;2611925;54;20438;-75
2023/10/22 05:18:59;;;;;;;1.83;1.70;;;;;;;;;;2611982;54;20941;-75
2023/10/22 05:21:25;;;;;;;2.00;1.80;;;;;;;;;;2610262;54;20443;-73
2023/10/22 05:23:51;;;;;;;5.13;2.07;;;;;;;;;;2610994;54;20422;-73
2023/10/22 05:26:18;;;;;;;1.90;1.80;;;;;;;;;;2610696;47;20942;-74
2023/10/22 05:28:44;;;;;;;3.63;2.10;;;;;;;;;;2611871;54;20396;-74
2023/10/22 05:31:14;;;;;;;2.00;1.80;;;;;;;;;;2611733;54;20395;-73
2023/10/22 05:33:40;;;;;;;2.73;1.60;;;;;;;;;;2612061;54;20387;-74
2023/10/22 05:36:14;;;;;;;2.33;1.57;;;;;;;;;;2611609;54;20455;-75
2023/10/22 05:38:40;;;;;;;1.50;1.40;;;;;;;;;;2611260;54;20982;-74
2023/10/22 05:41:06;;;;;;;3.90;1.50;;;;;;;;;;2611929;54;20438;-73
2023/10/22 05:43:32;;;;;;;2.00;1.60;;;;;;;;;;2611839;47;20430;-74
2023/10/22 05:45:58;;;;;;;1.50;1.30;;;;;;;;;;2611867;47;20400;-75
2023/10/22 05:48:24;;;;;;;1.80;1.27;;;;;;;;;;2612892;39;21074;-74
2023/10/22 05:50:50;;;;;;;1.70;1.47;;;;;;;;;;2612519;54;20961;-74
2023/10/22 05:53:16;;;;;;;1.73;1.40;;;;;;;;;;2612494;54;21459;-74
2023/10/22 05:55:42;;;;;;;1.70;1.40;;;;;;;;;;2611393;54;20439;-75
2023/10/22 05:58:09;;;;;;;2.27;1.73;;;;;;;;;;2611603;54;20435;-74
2023/10/22 06:00:35;;;;;;;2.43;1.67;;;;;;;;;;2611704;47;20404;-73
2023/10/22 06:03:01;;;;;;;1.80;1.40;;;;;;;;;;2612388;54;20434;-73
2023/10/22 06:05:27;;;;;;;3.40;1.57;;;;;;;;;;2612578;54;20966;-73
2023/10/22 06:07:53;;;;;;;2.30;1.70;;;;;;;;;;2611972;54;20420;-74
2023/10/22 06:10:19;;;;;;;2.40;2.20;;;;;;;;;;2611377;54;20449;-74
2023/10/22 06:12:45;;;;;;;1.80;1.70;;;;;;;;;;2611968;54;20526;-73
2023/10/22 06:15:12;;;;;;;1.97;1.60;;;;;;;;;;2611092;54;20459;-74
2023/10/22 06:17:40;;;;;;;2.70;1.40;;;;;;;;;;2611021;54;20412;-74
2023/10/22 06:20:07;;;;;;;7.53;1.60;;;;;;;;;;2611862;47;20399;-74
2023/10/22 06:22:33;;;;;;;2.10;1.30;;;;;;;;;;2610765;54;20412;-74
2023/10/22 06:24:59;;;;;;;1.80;1.07;;;;;;;;;;2611524;54;20413;-74
2023/10/22 06:27:25;;;;;;;2.47;1.23;;;;;;;;;;2612086;54;20420;-73
2023/10/22 06:29:53;;;;;;;2.30;1.60;;;;;;;;;;2612081;54;20416;-74
2023/10/22 06:32:20;;;;;;;1.90;1.40;;;;;;;;;;2612363;54;20375;-74
2023/10/22 06:34:46;;;;;;;1.80;1.40;;;;;;;;;;2611472;54;20477;-74
2023/10/22 06:37:12;;;;;;;2.00;1.33;;;;;;;;;;2612419;54;20451;-73
2023/10/22 06:39:38;;;;;;;3.43;1.53;;;;;;;;;;2611085;39;20801;-73
2023/10/22 06:42:04;;;;;;;3.07;1.40;;;;;;;;;;2612057;54;21266;-73
2023/10/22 06:44:31;;;;;;;2.60;1.90;;;;;;;;;;2611415;54;20415;-73
2023/10/22 06:46:57;;;;;;;1.90;1.47;;;;;;;;;;2612000;39;20839;-73
2023/10/22 06:49:23;;;;;;;1.70;1.47;;;;;;;;;;2611687;54;20458;-73
2023/10/22 06:51:49;;;;;;;1.50;1.30;;;;;;;;;;2612444;54;20396;-74
2023/10/22 06:54:15;;;;;;;2.07;1.70;;;;;;;;;;2612451;54;20420;-79
2023/10/22 06:56:41;;;;;;;2.23;1.67;;;;;;;;;;2612480;46;20534;-75
2023/10/22 06:59:07;;;;;;;7.17;1.77;;;;;;;;;;2609103;54;20418;-73
2023/10/22 07:01:33;;;;;;;2.60;1.97;;;;;;;;;;2609850;47;20539;-73
2023/10/22 07:03:59;;;;;;;2.93;1.70;;;;;;;;;;2612154;54;20384;-74
2023/10/22 07:06:25;;;;;;;3.10;1.50;;;;;;;;;;2609612;54;20580;-73
2023/10/22 07:08:51;;;;;;;1.87;1.77;;;;;;;;;;2608734;54;20375;-73
2023/10/22 07:11:17;;;;;;;1.90;1.63;;;;;;;;;;2610218;54;20415;-73
2023/10/22 07:13:44;;;;;;;2.20;1.80;;;;;;;;;;2610595;39;20784;-74
2023/10/22 07:16:10;;;;;;;2.10;1.70;;;;;;;;;;2610693;54;20543;-74
2023/10/22 07:18:36;;;;;;;2.80;1.90;;;;;;;;;;2610469;39;21213;-74
2023/10/22 07:21:02;;;;;;;2.20;1.60;;;;;;;;;;2610147;54;20437;-74
2023/10/22 07:23:31;;;;;;;1.93;1.60;;;;;;;;;;2609902;54;21374;-74
2023/10/22 07:25:57;;;;;;;2.77;1.50;;;;;;;;;;2610657;39;21163;-73
2023/10/22 07:28:23;;;;;;;2.07;1.70;;;;;;;;;;2610362;54;20416;-74
2023/10/22 07:30:51;;;;;;;3.03;2.00;;;;;;;;;;2610522;54;20418;-75
2023/10/22 07:33:17;;;;;;;3.10;1.90;;;;;;;;;;2608950;54;20446;-74
2023/10/22 07:35:54;;;;;;;2.03;1.83;;;;;;;;;;2609660;47;20412;-79
2023/10/22 07:38:20;;;;;;;2.40;1.70;;;;;;;;;;2609909;54;20461;-75
2023/10/22 07:40:47;;;;;;;2.20;2.00;;;;;;;;;;2609803;54;20427;-74
2023/10/22 07:43:14;;;;;;;2.73;2.10;;;;;;;;;;2609889;54;20396;-74
2023/10/22 07:45:40;;;;;;;4.53;2.87;;;;;;;;;;2610401;39;20896;-74
2023/10/22 07:48:06;;;;;;;5.93;2.27;;;;;;;;;;2609888;54;20478;-74
2023/10/22 07:50:32;;;;;;;2.40;2.20;;;;;;;;;;2610556;39;20801;-75
2023/10/22 07:52:58;;;;;;;3.00;2.47;;;;;;;;;;2609537;54;20439;-74
2023/10/22 07:55:24;;;;;;;1.90;1.77;;;;;;;;;;2609937;54;20582;-75
2023/10/22 07:57:51;;;;;;;2.80;2.50;;;;;;;;;;2609870;54;20419;-75
2023/10/22 08:00:17;;;;;;;3.07;2.33;;;;;;;;;;2609106;54;20403;-75
2023/10/22 08:02:43;;;;;;;4.17;3.90;;;;;;;;;;2608833;54;20463;-75
2023/10/22 08:05:10;;;;;;;3.40;2.50;;;;;;;;;;2610094;54;20407;-74
2023/10/22 08:07:36;;;;;;;2.90;2.70;;;;;;;;;;2610298;54;20455;-74
2023/10/22 08:10:02;;;;;;;2.77;2.40;;;;;;;;;;2612120;54;20586;-75
2023/10/22 08:12:28;;;;;;;2.63;2.33;;;;;;;;;;2609339;54;20416;-74
2023/10/22 08:14:54;;;;;;;2.57;2.37;;;;;;;;;;2610303;54;20482;-74
2023/10/22 08:17:20;;;;;;;2.40;2.20;;;;;;;;;;2609861;39;20811;-74
2023/10/22 08:19:46;;;;;;;3.80;2.60;;;;;;;;;;2609677;46;20558;-75
2023/10/22 08:22:12;;;;;;;3.50;2.60;;;;;;;;;;2609551;54;20408;-73
2023/10/22 08:24:39;;;;;;;2.70;2.50;;;;;;;;;;2609549;54;20530;-74
2023/10/22 08:27:05;;;;;;;3.20;2.63;;;;;;;;;;2609073;54;20410;-73
2023/10/22 08:29:31;;;;;;;2.90;2.70;;;;;;;;;;2609233;47;20508;-74
2023/10/22 08:31:57;;;;;;;3.30;3.00;;;;;;;;;;2609296;54;20400;-73
2023/10/22 08:34:24;;;;;;;3.10;2.80;;;;;;;;;;2609689;54;20404;-73
2023/10/22 08:36:50;;;;;;;10.60;3.20;;;;;;;;;;2609562;54;20530;-73
2023/10/22 08:39:17;;;;;;;2.70;2.50;;;;;;;;;;2609097;54;20415;-73
2023/10/22 08:41:51;;;;;;;3.13;2.70;;;;;;;;;;2609661;54;20403;-73
2023/10/22 08:44:18;;;;;;;3.10;2.90;;;;;;;;;;2608800;47;20414;-75
2023/10/22 08:46:44;;;;;;;2.80;2.60;;;;;;;;;;2609807;54;20418;-73
2023/10/22 08:49:12;;;;;;;3.53;2.90;;;;;;;;;;2610197;39;20901;-75
2023/10/22 08:51:38;;;;;;;3.13;2.80;;;;;;;;;;2610105;54;21620;-73
2023/10/22 08:54:04;;;;;;;4.23;2.70;;;;;;;;;;2609461;54;20451;-74
2023/10/22 08:56:31;;;;;;;3.10;2.80;;;;;;;;;;2609139;39;20931;-75
2023/10/22 08:59:02;;;;;;;3.50;3.30;;;;;;;;;;2609145;54;20395;-74
2023/10/22 09:01:28;;;;;;;3.47;3.17;;;;;;;;;;2609512;54;20431;-75
2023/10/22 09:03:55;;;;;;;4.07;3.77;;;;;;;;;;2609959;39;21326;-75
2023/10/22 09:06:22;;;;;;;3.27;3.07;;;;;;;;;;2609310;54;20977;-75
2023/10/22 09:08:48;;;;;;;4.33;3.93;;;;;;;;;;2609397;47;20419;-75
2023/10/22 09:11:15;;;;;;;3.90;3.60;;;;;;;;;;2610347;54;20423;-75
2023/10/22 09:13:41;;;;;;;2.90;2.70;;;;;;;;;;2610684;39;20824;-74
2023/10/22 09:16:08;;;;;;;3.83;2.90;;;;;;;;;;2610342;47;20406;-75
2023/10/22 09:18:46;;;;;;;3.67;3.37;;;;;;;;;;2609492;54;20427;-75
2023/10/22 09:21:13;;;;;;;3.47;3.23;;;;;;;;;;2610517;54;20455;-74
2023/10/22 09:23:39;;;;;;;3.90;3.50;;;;;;;;;;2610668;54;20539;-74
2023/10/22 09:26:07;;;;;;;3.33;3.07;;;;;;;;;;2611153;54;20938;-74
2023/10/22 09:28:33;;;;;;;3.13;2.93;;;;;;;;;;2611293;39;21303;-74
2023/10/22 09:31:01;;;;;;;3.03;2.83;;;;;;;;;;2613672;39;20880;-74
2023/10/22 09:33:41;;;;;;;3.30;3.10;;;;;;;;;;2614783;54;20945;-74
2023/10/22 09:36:07;;;;;;;3.23;2.93;;;;;;;;;;2614972;47;21406;-74
2023/10/22 09:38:42;;;;;;;3.63;3.20;;;;;;;;;;2614150;54;20435;-73
2023/10/22 09:41:11;;;;;;;3.47;3.20;;;;;;;;;;2612085;54;20462;-75
2023/10/22 09:43:37;;;;;;;3.57;3.37;;;;;;;;;;2610396;54;21067;-74
2023/10/22 09:46:06;;;;;;;2.83;2.63;;;;;;;;;;2610630;54;20462;-74
2023/10/22 09:48:34;;;;;;;3.10;2.80;;;;;;;;;;2610699;54;21020;-76
2023/10/22 09:51:03;;;;;;;3.80;2.60;;;;;;;;;;2610354;54;20428;-74
2023/10/22 09:53:31;;;;;;;2.90;2.67;;;;;;;;;;2610015;47;20535;-75
2023/10/22 09:55:57;;;;;;;4.57;2.63;;;;;;;;;;2610353;54;20445;-74
2023/10/22 09:58:30;;;;;;;2.97;2.63;;;;;;;;;;2609982;54;20973;-74
2023/10/22 10:00:57;;;;;;;5.73;3.17;;;;;;;;;;2609568;54;21035;-74
2023/10/22 10:03:24;;;;;;;5.40;3.17;;;;;;;;;;2609949;39;21200;-75
2023/10/22 10:05:51;;;;;;;3.07;2.77;;;;;;;;;;2608779;47;20423;-74
2023/10/22 10:08:17;;;;;;;3.80;3.50;;;;;;;;;;2609020;54;20510;-75
2023/10/22 10:10:45;;;;;;;2.67;2.47;;;;;;;;;;2610168;54;20434;-73
2023/10/22 10:13:11;;;;;;;4.10;2.80;;;;;;;;;;2611060;54;21007;-74
2023/10/22 10:15:38;;;;;;;3.50;3.30;;;;;;;;;;2609806;54;20424;-75
2023/10/22 10:18:08;;;;;;;3.17;2.97;;;;;;;;;;2608774;54;20498;-75
2023/10/22 10:20:35;;;;;;;4.27;3.33;;;;;;;;;;2608239;47;20457;-75
2023/10/22 10:23:07;;;;;;;3.30;3.10;;;;;;;;;;2610644;39;20952;-75
2023/10/22 10:25:33;;;;;;;3.57;3.00;;;;;;;;;;2611796;51;20930;-75
2023/10/22 10:28:06;;;;;;;3.40;3.10;;;;;;;;;;2611512;54;20418;-75
2023/10/22 10:30:33;;;;;;;3.30;3.10;;;;;;;;;;2611183;54;20380;-74
2023/10/22 10:32:59;;;;;;;3.63;3.10;;;;;;;;;;2610114;54;20994;-74
2023/10/22 10:35:27;;;;;;;3.20;2.90;;;;;;;;;;2610289;54;20391;-75
2023/10/22 10:38:29;;;;;;;3.30;3.10;;;;;;;;;;2610307;54;21133;-75
2023/10/22 10:40:56;;;;;;;3.60;3.30;;;;;;;;;;2608237;54;21383;-75
2023/10/22 10:43:57;;;;;;;3.60;3.30;;;;;;;;;;2609046;47;20404;-75
2023/10/22 10:46:25;;;;;;;3.40;3.13;;;;;;;;;;2609385;54;20419;-74
2023/10/22 10:48:52;;;;;;;4.13;3.73;;;;;;;;;;2608639;47;20398;-74
2023/10/22 10:51:22;;;;;;;3.50;3.20;;;;;;;;;;2609592;54;20423;-75
2023/10/22 10:54:07;;;;;;;3.93;3.63;;;;;;;;;;2610399;54;20464;-74
2023/10/22 10:56:48;;;;;;;3.73;3.50;;;;;;;;;;2610435;47;20981;-75
2023/10/22 10:59:25;;;;;;;3.80;3.50;;;;;;;;;;2608536;54;20438;-74
2023/10/22 11:02:01;;;;;;;3.70;3.40;;;;;;;;;;2608719;46;20479;-74
2023/10/22 11:04:28;;;;;;;3.80;3.50;;;;;;;;;;2609368;54;20416;-74
2023/10/22 11:06:54;;;;;;;3.57;3.30;;;;;;;;;;2608838;54;20415;-74
2023/10/22 11:09:21;;;;;;;3.70;3.43;;;;;;;;;;2608303;54;20497;-74
2023/10/22 11:11:58;;;;;;;3.60;3.40;;;;;;;;;;2608520;54;20425;-75
2023/10/22 11:14:25;;;;;;;3.67;3.20;;;;;;;;;;2608507;54;20412;-76
2023/10/22 11:16:55;;;;;;;4.50;3.83;;;;;;;;;;2608469;54;20993;-75
2023/10/22 11:19:22;;;;;;;3.57;3.27;;;;;;;;;;2609031;54;20405;-74
2023/10/22 11:21:49;;;;;;;6.27;3.30;;;;;;;;;;2610464;54;20428;-73
2023/10/22 11:24:16;;;;;;;3.90;3.40;;;;;;;;;;2610786;54;21029;-73
2023/10/22 11:26:42;;;;;;;3.10;2.90;;;;;;;;;;2610078;47;20511;-72
2023/10/22 11:29:09;;;;;;;3.80;3.50;;;;;;;;;;2610085;54;20813;-70
2023/10/22 11:31:35;;;;;;;3.53;3.23;;;;;;;;;;2610283;54;21198;-74
2023/10/22 11:34:17;;;;;;;3.40;3.10;;;;;;;;;;2609786;47;20415;-72
2023/10/22 11:36:43;;;;;;;4.20;3.17;;;;;;;;;;2609951;54;20473;-71
2023/10/22 11:39:19;;;;;;;4.20;3.70;;;;;;;;;;2609959;47;20396;-73
2023/10/22 11:41:45;;;;;;;3.50;3.20;;;;;;;;;;2610779;39;20807;-73
2023/10/22 11:44:27;;;;;;;3.60;3.30;;;;;;;;;;2610773;39;20970;-73
2023/10/22 11:46:53;;;;;;;3.57;3.20;;;;;;;;;;2611402;39;21268;-74
2023/10/22 11:49:19;;;;;;;3.43;3.13;;;;;;;;;;2611355;31;20933;-71
2023/10/22 11:51:46;;;;;;;3.93;3.63;;;;;;;;;;2610837;54;20391;-72
2023/10/22 11:54:12;;;;;;;4.90;3.20;;;;;;;;;;2610247;47;20420;-73
2023/10/22 11:56:38;;;;;;;4.60;3.60;;;;;;;;;;2609859;47;20430;-73
2023/10/22 11:59:06;;;;;;;3.50;3.20;;;;;;;;;;2610086;54;20392;-73
2023/10/22 12:01:41;;;;;;;4.23;3.57;;;;;;;;;;2612583;54;20412;-72
2023/10/22 12:04:07;;;;;;;3.70;3.50;;;;;;;;;;2613308;54;20423;-73
2023/10/22 12:06:45;;;;;;;3.70;3.50;;;;;;;;;;2613399;47;20439;-75
2023/10/22 12:09:20;;;;;;;3.57;3.37;;;;;;;;;;2613274;54;20416;-73
2023/10/22 12:11:46;;;;;;;3.77;3.50;;;;;;;;;;2613968;54;21039;-74
2023/10/22 12:14:15;;;;;;;3.87;3.57;;;;;;;;;;2613242;39;20463;-74
2023/10/22 12:16:41;;;;;;;3.90;3.60;;;;;;;;;;2613304;54;20401;-73
2023/10/22 12:19:09;;;;;;;3.67;3.47;;;;;;;;;;2613810;54;20432;-74
2023/10/22 12:21:36;;;;;;;3.90;3.60;;;;;;;;;;2614306;54;20440;-74
2023/10/22 12:24:02;;;;;;;3.80;3.43;;;;;;;;;;2613527;46;20460;-74
2023/10/22 12:26:28;;;;;;;3.67;3.37;;;;;;;;;;2613036;54;20419;-74
2023/10/22 12:28:58;;;;;;;3.80;3.60;;;;;;;;;;2613914;47;20438;-73
2023/10/22 12:31:24;;;;;;;3.70;3.50;;;;;;;;;;2612753;51;20442;-74
2023/10/22 12:33:50;;;;;;;4.23;3.93;;;;;;;;;;2613133;54;20423;-74
2023/10/22 12:36:17;;;;;;;5.10;4.57;;;;;;;;;;2614205;54;20427;-74
2023/10/22 12:38:43;;;;;;;4.73;4.33;;;;;;;;;;2613212;54;20420;-75
2023/10/22 12:41:11;;;;;;;4.80;4.50;;;;;;;;;;2613070;54;20535;-74
2023/10/22 12:43:37;;;;;;;4.70;4.50;;;;;;;;;;2614217;54;20401;-73
2023/10/22 12:46:04;;;;;;;4.93;4.63;;;;;;;;;;2613562;47;20428;-74
2023/10/22 12:48:31;;;;;;;5.20;4.80;;;;;;;;;;2615793;39;20799;-74
2023/10/22 12:50:59;;;;;;;7.97;5.47;;;;;;;;;;2614734;54;20415;-73
2023/10/22 12:53:25;;;;;;;5.20;5.00;;;;;;;;;;2615609;54;20416;-73
2023/10/22 12:55:54;;;;;;;5.40;5.20;;;;;;;;;;2614592;47;20411;-73
2023/10/22 12:58:20;;;;;;;5.90;5.60;;;;;;;;;;2614313;54;20469;-73
2023/10/22 13:00:48;;;;;;;6.40;6.10;;;;;;;;;;2614660;54;21032;-74
2023/10/22 13:03:31;;;;;;;5.73;5.33;;;;;;;;;;2614221;54;20411;-73
2023/10/22 13:06:10;;;;;;;6.10;5.80;;;;;;;;;;2615308;54;20428;-74
2023/10/22 13:08:37;;;;;;;5.53;5.20;;;;;;;;;;2614537;46;20530;-74
2023/10/22 13:11:03;;;;;;;5.30;4.90;;;;;;;;;;2613836;54;20420;-74
2023/10/22 13:13:29;;;;;;;5.80;5.37;;;;;;;;;;2610001;54;20569;-75
2023/10/22 13:15:55;;;;;;;6.00;5.60;;;;;;;;;;2611047;54;20454;-74
2023/10/22 13:18:21;;;;;;;5.77;5.47;;;;;;;;;;2611215;54;20420;-75
2023/10/22 13:20:48;;;;;;;5.50;5.20;;;;;;;;;;2610609;54;20394;-74
2023/10/22 13:23:14;;;;;;;5.17;4.87;;;;;;;;;;2609737;47;20428;-75
2023/10/22 13:25:40;;;;;;;5.50;5.20;;;;;;;;;;2611196;54;20674;-75
2023/10/22 13:28:07;;;;;;;5.67;5.27;;;;;;;;;;2610350;54;20417;-75
2023/10/22 13:30:33;;;;;;;5.47;5.27;;;;;;;;;;2610464;54;20992;-75
2023/10/22 13:32:59;;;;;;;5.70;5.40;;;;;;;;;;2610361;54;20434;-75
2023/10/22 13:35:26;;;;;;;5.33;5.03;;;;;;;;;;2610379;39;21171;-75
2023/10/22 13:37:52;;;;;;;5.03;4.80;;;;;;;;;;2611012;54;21317;-74
2023/10/22 13:40:19;;;;;;;5.17;4.87;;;;;;;;;;2610594;54;20504;-75
2023/10/22 13:42:45;;;;;;;5.13;4.73;;;;;;;;;;2609802;47;20416;-74
2023/10/22 13:45:11;;;;;;;5.20;4.80;;;;;;;;;;2610980;54;20473;-75
2023/10/22 13:47:37;;;;;;;4.60;4.40;;;;;;;;;;2611576;39;21307;-75
2023/10/22 13:50:04;;;;;;;4.47;4.23;;;;;;;;;;2610878;54;20384;-74
2023/10/22 13:52:30;;;;;;;4.10;3.80;;;;;;;;;;2610353;54;20431;-74
2023/10/22 13:54:56;;;;;;;4.13;3.90;;;;;;;;;;2609810;47;20542;-74
2023/10/22 13:57:23;;;;;;;4.33;4.03;;;;;;;;;;2610715;54;20408;-75
2023/10/22 13:59:49;;;;;;;5.33;4.83;;;;;;;;;;2610689;54;20409;-75
2023/10/22 14:02:15;;;;;;;4.10;3.83;;;;;;;;;;2608702;47;20411;-74
2023/10/22 14:04:41;;;;;;;4.43;4.10;;;;;;;;;;2610712;54;20427;-74
2023/10/22 14:07:07;;;;;;;4.57;3.57;;;;;;;;;;2610485;54;20396;-75
2023/10/22 14:09:33;;;;;;;3.67;3.10;;;;;;;;;;2609858;47;20440;-74
2023/10/22 14:11:59;;;;;;;3.60;3.40;;;;;;;;;;2610593;54;20410;-74
2023/10/22 14:14:25;;;;;;;3.53;3.33;;;;;;;;;;2611344;39;20843;-75
2023/10/22 14:16:51;;;;;;;3.80;3.50;;;;;;;;;;2609213;54;20434;-75
2023/10/22 14:19:18;;;;;;;3.73;3.53;;;;;;;;;;2608805;54;20439;-74
2023/10/22 14:21:46;;;;;;;4.07;3.73;;;;;;;;;;2612372;54;20439;-74
2023/10/22 14:24:13;;;;;;;5.90;3.50;;;;;;;;;;2613182;54;20400;-73
2023/10/22 14:26:40;;;;;;;2.90;2.70;;;;;;;;;;2613235;54;20403;-73
2023/10/22 14:29:08;;;;;;;4.10;2.90;;;;;;;;;;2614153;54;20420;-74
2023/10/22 14:31:34;;;;;;;2.67;2.10;;;;;;;;;;2615045;47;20422;-74
2023/10/22 14:34:06;;;;;;;2.40;2.00;;;;;;;;;;2615193;39;21108;-74
2023/10/22 14:36:34;;;;;;;2.90;2.60;;;;;;;;;;2615170;39;20962;-74
2023/10/22 14:39:00;;;;;;;3.33;2.53;;;;;;;;;;2614585;54;20447;-74
2023/10/22 14:41:26;;;;;;;3.63;2.53;;;;;;;;;;2612386;47;20412;-74
2023/10/22 14:43:52;;;;;;;4.20;2.73;;;;;;;;;;2612499;54;21219;-74
2023/10/22 14:46:21;;;;;;;3.20;2.60;;;;;;;;;;2612685;54;20531;-73